sensor_id;sensor_type;location;lat;lon;timestamp;pressure;altitude;pressure_sealevel;temperature;humidity
76448;BME280;65284;51.040;13.722;2023-03-07T00:00:16;98558.41;;;1.34;81.39
76448;BME280;65284;51.040;13.722;2023-03-07T00:02:42;98562.38;;;1.39;81.02
76448;BME280;65284;51.040;13.722;2023-03-07T00:05:09;98560.75;;;1.38;81.15
76448;BME280;65284;51.040;13.722;2023-03-07T00:07:35;98558.84;;;1.40;80.81
76448;BME280;65284;51.040;13.722;2023-03-07T00:10:02;98551.25;;;1.36;80.89
76448;BME280;65284;51.040;13.722;2023-03-07T00:12:28;98554.81;;;1.35;81.27
76448;BME280;65284;51.040;13.722;2023-03-07T00:14:55;98549.47;;;1.37;81.51
76448;BME280;65284;51.040;13.722;2023-03-07T00:17:21;98553.31;;;1.33;81.52
76448;BME280;65284;51.040;13.722;2023-03-07T00:19:48;98546.69;;;1.39;81.25
76448;BME280;65284;51.040;13.722;2023-03-07T00:22:14;98546.03;;;1.36;81.59
76448;BME280;65284;51.040;13.722;2023-03-07T00:24:40;98544.09;;;1.39;81.45
76448;BME280;65284;51.040;13.722;2023-03-07T00:27:07;98550.81;;;1.51;80.92
76448;BME280;65284;51.040;13.722;2023-03-07T00:29:34;98545.19;;;1.46;80.85
76448;BME280;65284;51.040;13.722;2023-03-07T00:32:00;98541.19;;;1.42;81.06
76448;BME280;65284;51.040;13.722;2023-03-07T00:34:28;98533.63;;;1.39;81.59
76448;BME280;65284;51.040;13.722;2023-03-07T00:36:55;98543.13;;;1.40;81.19
76448;BME280;65284;51.040;13.722;2023-03-07T00:39:21;98537.22;;;1.38;81.53
76448;BME280;65284;51.040;13.722;2023-03-07T00:41:48;98537.22;;;1.38;81.48
76448;BME280;65284;51.040;13.722;2023-03-07T00:44:14;98527.72;;;1.36;81.75
76448;BME280;65284;51.040;13.722;2023-03-07T00:46:41;98526.75;;;1.38;81.74
76448;BME280;65284;51.040;13.722;2023-03-07T00:49:07;98525.22;;;1.35;81.59
76448;BME280;65284;51.040;13.722;2023-03-07T00:51:33;98522.78;;;1.33;81.96
76448;BME280;65284;51.040;13.722;2023-03-07T00:54:00;98512.31;;;1.33;81.95
76448;BME280;65284;51.040;13.722;2023-03-07T00:56:26;98507.91;;;1.34;81.42
76448;BME280;65284;51.040;13.722;2023-03-07T00:58:53;98508.16;;;1.41;80.70
76448;BME280;65284;51.040;13.722;2023-03-07T01:01:21;98504.84;;;1.39;80.72
76448;BME280;65284;51.040;13.722;2023-03-07T01:03:49;98499.34;;;1.42;80.08
76448;BME280;65284;51.040;13.722;2023-03-07T01:06:19;98499.34;;;1.42;79.83
76448;BME280;65284;51.040;13.722;2023-03-07T01:08:45;98497.13;;;1.47;79.59
76448;BME280;65284;51.040;13.722;2023-03-07T01:11:12;98491.09;;;1.46;79.42
76448;BME280;65284;51.040;13.722;2023-03-07T01:13:39;98487.66;;;1.46;79.81
76448;BME280;65284;51.040;13.722;2023-03-07T01:16:07;98488.31;;;1.48;79.58
76448;BME280;65284;51.040;13.722;2023-03-07T01:18:34;98478.81;;;1.47;79.40
76448;BME280;65284;51.040;13.722;2023-03-07T01:21:01;98481.84;;;1.52;79.38
76448;BME280;65284;51.040;13.722;2023-03-07T01:23:27;98480.34;;;1.49;79.65
76448;BME280;65284;51.040;13.722;2023-03-07T01:25:53;98467.09;;;1.51;79.23
76448;BME280;65284;51.040;13.722;2023-03-07T01:28:20;98469.72;;;1.51;79.60
76448;BME280;65284;51.040;13.722;2023-03-07T01:30:56;98464.88;;;1.56;79.11
76448;BME280;65284;51.040;13.722;2023-03-07T01:33:22;98460.34;;;1.58;78.90
76448;BME280;65284;51.040;13.722;2023-03-07T01:35:48;98450.09;;;1.74;78.46
76448;BME280;65284;51.040;13.722;2023-03-07T01:38:15;98448.16;;;1.76;78.21
76448;BME280;65284;51.040;13.722;2023-03-07T01:40:41;98447.88;;;1.79;77.66
76448;BME280;65284;51.040;13.722;2023-03-07T01:43:20;98432.84;;;1.81;77.59
76448;BME280;65284;51.040;13.722;2023-03-07T01:48:15;98425.88;;;1.72;77.82
76448;BME280;65284;51.040;13.722;2023-03-07T01:50:42;98425.00;;;1.81;77.37
76448;BME280;65284;51.040;13.722;2023-03-07T01:53:08;98423.25;;;1.72;77.80
76448;BME280;65284;51.040;13.722;2023-03-07T01:55:35;98417.75;;;1.75;77.38
76448;BME280;65284;51.040;13.722;2023-03-07T01:58:08;98419.13;;;1.70;77.62
76448;BME280;65284;51.040;13.722;2023-03-07T02:00:36;98409.47;;;1.70;77.59
76448;BME280;65284;51.040;13.722;2023-03-07T02:05:46;98395.72;;;1.68;77.24
76448;BME280;65284;51.040;13.722;2023-03-07T02:08:16;98400.06;;;1.77;76.92
76448;BME280;65284;51.040;13.722;2023-03-07T02:10:43;98400.66;;;1.71;77.35
76448;BME280;65284;51.040;13.722;2023-03-07T02:13:10;98400.38;;;1.74;77.06
76448;BME280;65284;51.040;13.722;2023-03-07T02:15:36;98401.91;;;1.67;77.67
76448;BME280;65284;51.040;13.722;2023-03-07T02:18:03;98395.72;;;1.68;77.17
76448;BME280;65284;51.040;13.722;2023-03-07T02:20:59;98397.78;;;1.65;76.86
76448;BME280;65284;51.040;13.722;2023-03-07T02:23:35;98395.97;;;1.75;76.71
76448;BME280;65284;51.040;13.722;2023-03-07T02:26:15;98390.59;;;1.76;76.55
76448;BME280;65284;51.040;13.722;2023-03-07T02:28:43;98380.81;;;1.78;76.91
76448;BME280;65284;51.040;13.722;2023-03-07T02:31:11;98387.97;;;1.76;76.39
76448;BME280;65284;51.040;13.722;2023-03-07T02:33:37;98376.44;;;1.69;76.60
76448;BME280;65284;51.040;13.722;2023-03-07T02:36:07;98373.13;;;1.67;76.78
76448;BME280;65284;51.040;13.722;2023-03-07T02:38:37;98374.50;;;1.71;76.66
76448;BME280;65284;51.040;13.722;2023-03-07T02:41:06;98375.88;;;1.75;76.13
76448;BME280;65284;51.040;13.722;2023-03-07T02:43:33;98371.16;;;1.79;76.11
76448;BME280;65284;51.040;13.722;2023-03-07T02:46:00;98373.91;;;1.77;75.90
76448;BME280;65284;51.040;13.722;2023-03-07T02:48:26;98362.59;;;1.87;75.44
76448;BME280;65284;51.040;13.722;2023-03-07T02:50:53;98363.19;;;1.80;75.79
76448;BME280;65284;51.040;13.722;2023-03-07T02:53:19;98363.19;;;1.80;75.43
76448;BME280;65284;51.040;13.722;2023-03-07T02:55:45;98357.94;;;1.80;75.13
76448;BME280;65284;51.040;13.722;2023-03-07T02:58:12;98352.16;;;1.77;75.41
76448;BME280;65284;51.040;13.722;2023-03-07T03:00:38;98344.84;;;1.80;75.04
76448;BME280;65284;51.040;13.722;2023-03-07T03:03:04;98343.09;;;1.71;75.28
76448;BME280;65284;51.040;13.722;2023-03-07T03:05:31;98336.22;;;1.70;75.53
76448;BME280;65284;51.040;13.722;2023-03-07T03:07:57;98333.75;;;1.69;75.18
76448;BME280;65284;51.040;13.722;2023-03-07T03:10:24;98318.94;;;1.77;74.52
76448;BME280;65284;51.040;13.722;2023-03-07T03:12:50;98320.22;;;1.73;74.99
76448;BME280;65284;51.040;13.722;2023-03-07T03:15:17;98323.72;;;1.64;74.95
76448;BME280;65284;51.040;13.722;2023-03-07T03:17:43;98318.09;;;1.59;74.41
76448;BME280;65284;51.040;13.722;2023-03-07T03:20:10;98315.75;;;1.56;75.20
76448;BME280;65284;51.040;13.722;2023-03-07T03:22:39;98317.72;;;1.54;75.57
76448;BME280;65284;51.040;13.722;2023-03-07T03:25:08;98317.31;;;1.49;75.65
76448;BME280;65284;51.040;13.722;2023-03-07T03:27:36;98314.03;;;1.47;75.92
76448;BME280;65284;51.040;13.722;2023-03-07T03:30:04;98313.72;;;1.50;75.75
76448;BME280;65284;51.040;13.722;2023-03-07T03:32:31;98304.91;;;1.51;74.60
76448;BME280;65284;51.040;13.722;2023-03-07T03:34:58;98302.69;;;1.56;74.01
76448;BME280;65284;51.040;13.722;2023-03-07T03:37:25;98297.34;;;1.75;73.21
76448;BME280;65284;51.040;13.722;2023-03-07T03:39:52;98295.63;;;1.66;73.21
76448;BME280;65284;51.040;13.722;2023-03-07T03:42:22;98293.59;;;1.60;73.24
76448;BME280;65284;51.040;13.722;2023-03-07T03:44:49;98289.69;;;1.64;72.59
76448;BME280;65284;51.040;13.722;2023-03-07T03:47:15;98293.19;;;1.55;73.01
76448;BME280;65284;51.040;13.722;2023-03-07T03:49:42;98287.28;;;1.53;72.92
76448;BME280;65284;51.040;13.722;2023-03-07T03:52:08;98284.75;;;1.61;72.64
76448;BME280;65284;51.040;13.722;2023-03-07T03:54:34;98286.03;;;1.57;72.93
76448;BME280;65284;51.040;13.722;2023-03-07T03:57:01;98278.19;;;1.57;72.43
76448;BME280;65284;51.040;13.722;2023-03-07T03:59:28;98276.38;;;1.57;72.39
76448;BME280;65284;51.040;13.722;2023-03-07T04:01:55;98278.47;;;1.54;72.10
76448;BME280;65284;51.040;13.722;2023-03-07T04:04:21;98280.13;;;1.55;72.22
76448;BME280;65284;51.040;13.722;2023-03-07T04:06:48;98270.09;;;1.68;71.76
76448;BME280;65284;51.040;13.722;2023-03-07T04:09:14;98260.91;;;1.64;71.42
76448;BME280;65284;51.040;13.722;2023-03-07T04:11:40;98253.66;;;1.58;72.15
76448;BME280;65284;51.040;13.722;2023-03-07T04:14:07;98259.19;;;1.55;71.86
76448;BME280;65284;51.040;13.722;2023-03-07T04:16:33;98254.78;;;1.55;71.86
76448;BME280;65284;51.040;13.722;2023-03-07T04:19:00;98245.41;;;1.53;71.94
76448;BME280;65284;51.040;13.722;2023-03-07T04:21:26;98246.31;;;1.44;72.96
76448;BME280;65284;51.040;13.722;2023-03-07T04:23:53;98241.66;;;1.38;73.13
76448;BME280;65284;51.040;13.722;2023-03-07T04:26:22;98234.78;;;1.36;72.66
76448;BME280;65284;51.040;13.722;2023-03-07T04:28:48;98231.78;;;1.31;73.97
76448;BME280;65284;51.040;13.722;2023-03-07T04:31:20;98226.25;;;1.34;73.47
76448;BME280;65284;51.040;13.722;2023-03-07T04:33:47;98230.38;;;1.37;73.49
76448;BME280;65284;51.040;13.722;2023-03-07T04:36:14;98223.25;;;1.29;73.24
76448;BME280;65284;51.040;13.722;2023-03-07T04:38:44;98219.69;;;1.30;73.21
76448;BME280;65284;51.040;13.722;2023-03-07T04:41:20;98210.47;;;1.26;73.30
76448;BME280;65284;51.040;13.722;2023-03-07T04:43:46;98212.28;;;1.26;73.52
76448;BME280;65284;51.040;13.722;2023-03-07T04:46:15;98204.28;;;1.27;73.19
76448;BME280;65284;51.040;13.722;2023-03-07T04:48:41;98201.28;;;1.22;74.04
76448;BME280;65284;51.040;13.722;2023-03-07T04:51:08;98198.09;;;1.28;73.41
76448;BME280;65284;51.040;13.722;2023-03-07T04:53:35;98187.31;;;1.31;73.01
76448;BME280;65284;51.040;13.722;2023-03-07T04:56:03;98183.38;;;1.27;72.79
76448;BME280;65284;51.040;13.722;2023-03-07T04:58:31;98177.47;;;1.25;73.33
76448;BME280;65284;51.040;13.722;2023-03-07T05:00:59;98185.00;;;1.28;73.08
76448;BME280;65284;51.040;13.722;2023-03-07T05:03:26;98178.16;;;1.27;72.90
76448;BME280;65284;51.040;13.722;2023-03-07T05:05:53;98171.25;;;1.26;72.61
76448;BME280;65284;51.040;13.722;2023-03-07T05:08:20;98175.88;;;1.32;72.40
76448;BME280;65284;51.040;13.722;2023-03-07T05:10:47;98177.56;;;1.33;72.30
76448;BME280;65284;51.040;13.722;2023-03-07T05:13:13;98171.78;;;1.48;71.41
76448;BME280;65284;51.040;13.722;2023-03-07T05:15:40;98174.28;;;1.67;70.45
76448;BME280;65284;51.040;13.722;2023-03-07T05:18:06;98164.72;;;1.58;70.60
76448;BME280;65284;51.040;13.722;2023-03-07T05:20:33;98165.81;;;1.73;69.96
76448;BME280;65284;51.040;13.722;2023-03-07T05:22:59;98166.50;;;1.75;69.72
76448;BME280;65284;51.040;13.722;2023-03-07T05:25:26;98156.03;;;1.75;69.87
76448;BME280;65284;51.040;13.722;2023-03-07T05:27:53;98166.19;;;1.78;69.24
76448;BME280;65284;51.040;13.722;2023-03-07T05:30:20;98161.69;;;1.89;68.95
76448;BME280;65284;51.040;13.722;2023-03-07T05:32:47;98162.28;;;1.82;70.06
76448;BME280;65284;51.040;13.722;2023-03-07T05:35:13;98145.94;;;1.80;69.75
76448;BME280;65284;51.040;13.722;2023-03-07T05:37:40;98152.88;;;1.90;69.17
76448;BME280;65284;51.040;13.722;2023-03-07T05:40:06;98153.91;;;1.97;69.24
76448;BME280;65284;51.040;13.722;2023-03-07T05:42:36;98144.25;;;1.97;69.33
76448;BME280;65284;51.040;13.722;2023-03-07T05:45:03;98140.69;;;1.98;69.78
76448;BME280;65284;51.040;13.722;2023-03-07T05:47:31;98145.88;;;2.16;68.74
76448;BME280;65284;51.040;13.722;2023-03-07T05:49:57;98142.41;;;2.16;68.68
76448;BME280;65284;51.040;13.722;2023-03-07T05:52:25;98137.72;;;2.19;68.44
76448;BME280;65284;51.040;13.722;2023-03-07T05:54:52;98142.59;;;2.14;68.79
76448;BME280;65284;51.040;13.722;2023-03-07T05:57:19;98144.91;;;2.17;68.61
76448;BME280;65284;51.040;13.722;2023-03-07T05:59:45;98143.59;;;2.21;68.36
76448;BME280;65284;51.040;13.722;2023-03-07T06:02:12;98139.22;;;2.30;68.18
76448;BME280;65284;51.040;13.722;2023-03-07T06:04:38;98138.41;;;2.30;68.57
76448;BME280;65284;51.040;13.722;2023-03-07T06:07:04;98133.97;;;2.22;69.20
76448;BME280;65284;51.040;13.722;2023-03-07T06:09:31;98138.41;;;2.30;69.06
76448;BME280;65284;51.040;13.722;2023-03-07T06:11:58;98144.78;;;2.27;68.99
76448;BME280;65284;51.040;13.722;2023-03-07T06:14:24;98147.91;;;2.31;68.88
76448;BME280;65284;51.040;13.722;2023-03-07T06:16:50;98150.38;;;2.32;68.87
76448;BME280;65284;51.040;13.722;2023-03-07T06:19:17;98144.34;;;2.32;68.80
76448;BME280;65284;51.040;13.722;2023-03-07T06:21:43;98150.22;;;2.34;69.22
76448;BME280;65284;51.040;13.722;2023-03-07T06:24:09;98158.94;;;2.34;69.03
76448;BME280;65284;51.040;13.722;2023-03-07T06:26:36;98152.19;;;2.32;69.69
76448;BME280;65284;51.040;13.722;2023-03-07T06:29:02;98143.78;;;2.46;69.20
76448;BME280;65284;51.040;13.722;2023-03-07T06:31:29;98144.41;;;2.48;68.67
76448;BME280;65284;51.040;13.722;2023-03-07T06:33:55;98133.28;;;2.46;69.39
76448;BME280;65284;51.040;13.722;2023-03-07T06:36:22;98145.09;;;2.50;69.33
76448;BME280;65284;51.040;13.722;2023-03-07T06:38:49;98150.00;;;2.53;69.39
76448;BME280;65284;51.040;13.722;2023-03-07T06:41:16;98151.81;;;2.53;70.12
76448;BME280;65284;51.040;13.722;2023-03-07T06:43:42;98151.34;;;2.57;70.16
76448;BME280;65284;51.040;13.722;2023-03-07T06:46:09;98151.31;;;2.49;70.98
76448;BME280;65284;51.040;13.722;2023-03-07T06:48:35;98150.31;;;2.50;71.34
76448;BME280;65284;51.040;13.722;2023-03-07T06:51:05;98149.34;;;2.51;71.30
76448;BME280;65284;51.040;13.722;2023-03-07T06:53:32;98141.16;;;2.54;71.96
76448;BME280;65284;51.040;13.722;2023-03-07T06:55:58;98132.97;;;2.49;72.27
76448;BME280;65284;51.040;13.722;2023-03-07T06:58:25;98137.59;;;2.55;72.29
76448;BME280;65284;51.040;13.722;2023-03-07T07:00:51;98135.94;;;2.54;72.46
76448;BME280;65284;51.040;13.722;2023-03-07T07:03:19;98145.59;;;2.54;72.61
76448;BME280;65284;51.040;13.722;2023-03-07T07:05:46;98138.41;;;2.56;72.93
76448;BME280;65284;51.040;13.722;2023-03-07T07:08:12;98129.56;;;2.57;72.89
76448;BME280;65284;51.040;13.722;2023-03-07T07:10:38;98128.44;;;2.59;72.60
76448;BME280;65284;51.040;13.722;2023-03-07T07:13:05;98122.06;;;2.62;73.09
76448;BME280;65284;51.040;13.722;2023-03-07T07:15:31;98136.97;;;2.61;73.17
76448;BME280;65284;51.040;13.722;2023-03-07T07:17:59;98130.28;;;2.67;72.92
76448;BME280;65284;51.040;13.722;2023-03-07T07:20:26;98126.84;;;2.66;73.19
76448;BME280;65284;51.040;13.722;2023-03-07T07:22:53;98127.16;;;2.71;73.24
76448;BME280;65284;51.040;13.722;2023-03-07T07:25:20;98127.38;;;2.86;72.68
76448;BME280;65284;51.040;13.722;2023-03-07T07:27:46;98127.88;;;2.82;72.89
76448;BME280;65284;51.040;13.722;2023-03-07T07:30:13;98118.72;;;2.86;72.74
76448;BME280;65284;51.040;13.722;2023-03-07T07:32:39;98131.81;;;2.86;72.82
76448;BME280;65284;51.040;13.722;2023-03-07T07:35:06;98130.81;;;2.87;73.04
76448;BME280;65284;51.040;13.722;2023-03-07T07:37:33;98126.13;;;2.90;73.12
76448;BME280;65284;51.040;13.722;2023-03-07T07:40:00;98129.59;;;2.99;72.86
76448;BME280;65284;51.040;13.722;2023-03-07T07:42:26;98148.59;;;3.01;73.33
76448;BME280;65284;51.040;13.722;2023-03-07T07:44:52;98141.88;;;3.07;73.02
76448;BME280;65284;51.040;13.722;2023-03-07T07:47:19;98132.22;;;3.07;73.59
76448;BME280;65284;51.040;13.722;2023-03-07T07:49:45;98142.38;;;3.10;74.01
76448;BME280;65284;51.040;13.722;2023-03-07T07:52:11;98140.91;;;3.16;73.97
76448;BME280;65284;51.040;13.722;2023-03-07T07:54:38;98138.78;;;3.11;74.35
76448;BME280;65284;51.040;13.722;2023-03-07T07:57:04;98129.28;;;3.18;74.46
76448;BME280;65284;51.040;13.722;2023-03-07T07:59:31;98130.09;;;3.19;75.07
76448;BME280;65284;51.040;13.722;2023-03-07T08:01:59;98137.50;;;3.24;75.22
76448;BME280;65284;51.040;13.722;2023-03-07T08:04:26;98124.41;;;3.32;75.20
76448;BME280;65284;51.040;13.722;2023-03-07T08:06:53;98142.25;;;3.20;75.48
76448;BME280;65284;51.040;13.722;2023-03-07T08:09:19;98130.78;;;3.21;75.42
76448;BME280;65284;51.040;13.722;2023-03-07T08:11:46;98128.31;;;3.28;75.76
76448;BME280;65284;51.040;13.722;2023-03-07T08:14:13;98134.09;;;3.31;75.64
76448;BME280;65284;51.040;13.722;2023-03-07T08:16:39;98121.44;;;3.27;75.25
76448;BME280;65284;51.040;13.722;2023-03-07T08:19:06;98123.09;;;3.28;75.40
76448;BME280;65284;51.040;13.722;2023-03-07T08:21:32;98127.38;;;3.29;75.39
76448;BME280;65284;51.040;13.722;2023-03-07T08:23:58;98125.06;;;3.26;76.05
76448;BME280;65284;51.040;13.722;2023-03-07T08:26:25;98115.56;;;3.33;76.20
76448;BME280;65284;51.040;13.722;2023-03-07T08:28:51;98113.59;;;3.35;76.03
76448;BME280;65284;51.040;13.722;2023-03-07T08:31:20;98115.72;;;3.39;75.69
76448;BME280;65284;51.040;13.722;2023-03-07T08:33:49;98107.69;;;3.33;76.08
76448;BME280;65284;51.040;13.722;2023-03-07T08:36:16;98113.91;;;3.40;75.28
76448;BME280;65284;51.040;13.722;2023-03-07T08:38:42;98115.44;;;3.59;75.23
76448;BME280;65284;51.040;13.722;2023-03-07T08:41:08;98103.44;;;3.56;74.56
76448;BME280;65284;51.040;13.722;2023-03-07T08:43:36;98108.03;;;3.62;74.19
76448;BME280;65284;51.040;13.722;2023-03-07T08:46:03;98107.56;;;3.59;74.54
76448;BME280;65284;51.040;13.722;2023-03-07T08:48:30;98115.59;;;3.65;73.54
76448;BME280;65284;51.040;13.722;2023-03-07T08:50:56;98106.09;;;3.73;73.95
76448;BME280;65284;51.040;13.722;2023-03-07T08:53:22;98107.88;;;3.80;73.45
76448;BME280;65284;51.040;13.722;2023-03-07T08:55:49;98112.47;;;3.86;73.16
76448;BME280;65284;51.040;13.722;2023-03-07T08:58:15;98110.19;;;3.92;72.24
76448;BME280;65284;51.040;13.722;2023-03-07T09:00:42;98114.63;;;3.91;72.09
76448;BME280;65284;51.040;13.722;2023-03-07T09:03:08;98117.88;;;3.93;71.88
76448;BME280;65284;51.040;13.722;2023-03-07T09:05:36;98118.88;;;4.00;71.13
76448;BME280;65284;51.040;13.722;2023-03-07T09:08:05;98115.25;;;4.09;70.86
76448;BME280;65284;51.040;13.722;2023-03-07T09:10:32;98115.56;;;4.15;70.17
76448;BME280;65284;51.040;13.722;2023-03-07T09:12:59;98115.06;;;4.19;70.71
76448;BME280;65284;51.040;13.722;2023-03-07T09:15:25;98111.63;;;4.19;70.09
76448;BME280;65284;51.040;13.722;2023-03-07T09:17:52;98114.56;;;4.24;70.12
76448;BME280;65284;51.040;13.722;2023-03-07T09:20:18;98112.91;;;4.23;69.37
76448;BME280;65284;51.040;13.722;2023-03-07T09:22:45;98123.75;;;4.36;69.36
76448;BME280;65284;51.040;13.722;2023-03-07T09:25:13;98106.34;;;4.35;69.20
76448;BME280;65284;51.040;13.722;2023-03-07T09:27:39;98112.25;;;4.29;68.81
76448;BME280;65284;51.040;13.722;2023-03-07T09:30:06;98108.31;;;4.33;68.95
76448;BME280;65284;51.040;13.722;2023-03-07T09:32:33;98102.72;;;4.36;69.43
76448;BME280;65284;51.040;13.722;2023-03-07T09:34:59;98098.75;;;4.40;69.27
76448;BME280;65284;51.040;13.722;2023-03-07T09:37:26;98105.81;;;4.48;68.40
76448;BME280;65284;51.040;13.722;2023-03-07T09:39:52;98092.47;;;4.49;69.02
76448;BME280;65284;51.040;13.722;2023-03-07T09:45:19;98084.56;;;4.57;68.29
76448;BME280;65284;51.040;13.722;2023-03-07T09:50:49;98074.34;;;4.71;67.30
76448;BME280;65284;51.040;13.722;2023-03-07T09:53:36;98067.47;;;4.62;67.81
76448;BME280;65284;51.040;13.722;2023-03-07T09:56:11;98068.09;;;4.64;67.88
76448;BME280;65284;51.040;13.722;2023-03-07T09:58:42;98075.50;;;4.68;68.44
76448;BME280;65284;51.040;13.722;2023-03-07T10:01:12;98065.56;;;4.78;67.85
76448;BME280;65284;51.040;13.722;2023-03-07T10:03:49;98069.56;;;4.74;67.86
76448;BME280;65284;51.040;13.722;2023-03-07T10:06:25;98057.16;;;4.91;67.63
76448;BME280;65284;51.040;13.722;2023-03-07T10:08:53;98059.25;;;4.96;67.44
76448;BME280;65284;51.040;13.722;2023-03-07T10:16:49;98071.50;;;5.12;67.00
76448;BME280;65284;51.040;13.722;2023-03-07T10:19:53;98054.59;;;5.06;66.79
76448;BME280;65284;51.040;13.722;2023-03-07T10:22:41;98068.22;;;5.10;66.18
76448;BME280;65284;51.040;13.722;2023-03-07T10:25:26;98060.38;;;5.01;66.51
76448;BME280;65284;51.040;13.722;2023-03-07T10:27:59;98061.25;;;5.17;66.18
76448;BME280;65284;51.040;13.722;2023-03-07T10:30:30;98057.06;;;5.31;65.98
76448;BME280;65284;51.040;13.722;2023-03-07T10:32:58;98050.03;;;5.23;66.30
76448;BME280;65284;51.040;13.722;2023-03-07T10:35:37;98042.44;;;5.28;65.77
76448;BME280;65284;51.040;13.722;2023-03-07T10:38:27;98049.66;;;5.26;65.74
76448;BME280;65284;51.040;13.722;2023-03-07T10:41:06;98047.63;;;5.36;65.67
76448;BME280;65284;51.040;13.722;2023-03-07T10:43:35;98035.03;;;5.46;65.12
76448;BME280;65284;51.040;13.722;2023-03-07T10:46:22;98020.84;;;5.33;65.13
76448;BME280;65284;51.040;13.722;2023-03-07T10:48:53;98047.50;;;5.53;64.02
76448;BME280;65284;51.040;13.722;2023-03-07T10:51:30;98022.53;;;5.48;63.86
76448;BME280;65284;51.040;13.722;2023-03-07T10:54:03;98024.91;;;5.58;63.73
76448;BME280;65284;51.040;13.722;2023-03-07T10:56:30;98024.69;;;5.68;63.76
76448;BME280;65284;51.040;13.722;2023-03-07T11:01:29;98023.31;;;5.72;62.49
76448;BME280;65284;51.040;13.722;2023-03-07T11:04:04;98006.88;;;5.70;63.08
76448;BME280;65284;51.040;13.722;2023-03-07T11:06:50;97996.53;;;5.83;62.70
76448;BME280;65284;51.040;13.722;2023-03-07T11:09:28;97986.50;;;6.02;62.42
76448;BME280;65284;51.040;13.722;2023-03-07T11:14:48;97976.81;;;5.79;61.22
76448;BME280;65284;51.040;13.722;2023-03-07T11:17:19;97970.78;;;5.93;61.70
76448;BME280;65284;51.040;13.722;2023-03-07T11:19:47;97972.50;;;6.01;61.55
76448;BME280;65284;51.040;13.722;2023-03-07T11:22:31;97972.06;;;5.98;61.45
76448;BME280;65284;51.040;13.722;2023-03-07T11:25:17;97977.31;;;5.98;61.11
76448;BME280;65284;51.040;13.722;2023-03-07T11:27:52;97957.78;;;6.07;61.01
76448;BME280;65284;51.040;13.722;2023-03-07T11:30:29;97966.22;;;6.17;60.63
76448;BME280;65284;51.040;13.722;2023-03-07T11:35:51;97973.84;;;6.12;60.24
76448;BME280;65284;51.040;13.722;2023-03-07T11:38:29;97984.94;;;6.22;61.08
76448;BME280;65284;51.040;13.722;2023-03-07T11:41:05;97975.66;;;5.97;61.25
76448;BME280;65284;51.040;13.722;2023-03-07T11:43:45;97972.88;;;5.98;61.51
76448;BME280;65284;51.040;13.722;2023-03-07T11:49:25;97977.41;;;6.04;61.13
76448;BME280;65284;51.040;13.722;2023-03-07T11:52:25;97962.13;;;6.00;61.93
76448;BME280;65284;51.040;13.722;2023-03-07T11:57:58;97949.94;;;5.84;61.59
76448;BME280;65284;51.040;13.722;2023-03-07T12:00:35;97952.97;;;5.96;61.30
76448;BME280;65284;51.040;13.722;2023-03-07T12:12:07;97941.03;;;6.14;59.68
76448;BME280;65284;51.040;13.722;2023-03-07T12:14:49;97933.13;;;6.29;59.58
76448;BME280;65284;51.040;13.722;2023-03-07T12:17:46;97927.75;;;6.37;59.36
76448;BME280;65284;51.040;13.722;2023-03-07T12:25:44;97928.81;;;6.43;58.56
76448;BME280;65284;51.040;13.722;2023-03-07T12:30:57;97913.13;;;6.56;58.52
76448;BME280;65284;51.040;13.722;2023-03-07T12:33:52;97905.53;;;6.68;58.07
76448;BME280;65284;51.040;13.722;2023-03-07T12:36:59;97912.84;;;6.66;57.83
76448;BME280;65284;51.040;13.722;2023-03-07T12:39:38;97906.63;;;6.74;58.19
76448;BME280;65284;51.040;13.722;2023-03-07T12:44:55;97910.59;;;6.84;57.54
76448;BME280;65284;51.040;13.722;2023-03-07T12:47:33;97896.88;;;6.96;57.51
76448;BME280;65284;51.040;13.722;2023-03-07T12:50:14;97886.34;;;6.96;57.21
76448;BME280;65284;51.040;13.722;2023-03-07T12:52:52;97896.88;;;6.74;57.45
76448;BME280;65284;51.040;13.722;2023-03-07T12:55:26;97891.09;;;6.86;57.46
76448;BME280;65284;51.040;13.722;2023-03-07T13:00:55;97896.06;;;6.95;57.38
76448;BME280;65284;51.040;13.722;2023-03-07T13:04:01;97876.91;;;6.87;57.33
76448;BME280;65284;51.040;13.722;2023-03-07T13:06:31;97879.72;;;6.85;57.10
76448;BME280;65284;51.040;13.722;2023-03-07T13:09:00;97883.81;;;6.88;56.88
76448;BME280;65284;51.040;13.722;2023-03-07T13:11:31;97889.59;;;6.76;57.16
76448;BME280;65284;51.040;13.722;2023-03-07T13:14:00;97892.22;;;6.76;56.63
76448;BME280;65284;51.040;13.722;2023-03-07T13:16:44;97897.50;;;6.76;57.12
76448;BME280;65284;51.040;13.722;2023-03-07T13:21:59;97891.00;;;6.72;56.64
76448;BME280;65284;51.040;13.722;2023-03-07T13:24:36;97876.84;;;6.80;56.65
76448;BME280;65284;51.040;13.722;2023-03-07T13:27:12;97887.22;;;6.81;56.89
76448;BME280;65284;51.040;13.722;2023-03-07T13:41:03;97882.28;;;7.00;56.50
76448;BME280;65284;51.040;13.722;2023-03-07T13:43:33;97878.63;;;7.01;56.22
76448;BME280;65284;51.040;13.722;2023-03-07T13:46:02;97862.25;;;7.05;56.02
76448;BME280;65284;51.040;13.722;2023-03-07T13:53:38;97853.53;;;7.05;56.11
76448;BME280;65284;51.040;13.722;2023-03-07T13:58:46;97857.88;;;6.91;57.23
76448;BME280;65284;51.040;13.722;2023-03-07T14:01:17;97859.50;;;6.92;57.26
76448;BME280;65284;51.040;13.722;2023-03-07T14:03:56;97871.66;;;6.87;57.74
76448;BME280;65284;51.040;13.722;2023-03-07T14:06:37;97858.44;;;6.87;57.20
76448;BME280;65284;51.040;13.722;2023-03-07T14:09:06;97869.38;;;6.83;57.15
76448;BME280;65284;51.040;13.722;2023-03-07T14:11:56;97873.13;;;6.74;58.09
76448;BME280;65284;51.040;13.722;2023-03-07T14:15:11;97866.75;;;6.83;57.74
76448;BME280;65284;51.040;13.722;2023-03-07T14:20:45;97873.81;;;6.83;57.32
76448;BME280;65284;51.040;13.722;2023-03-07T14:23:19;97870.88;;;6.71;57.55
76448;BME280;65284;51.040;13.722;2023-03-07T14:25:51;97889.34;;;6.71;58.10
76448;BME280;65284;51.040;13.722;2023-03-07T14:28:23;97864.09;;;6.62;57.57
76448;BME280;65284;51.040;13.722;2023-03-07T14:30:57;97862.59;;;6.74;58.10